createdAt,value
2022-09-12T00:00:52.153Z,19.18
2022-09-12T00:03:19.113Z,19.18
2022-09-12T00:05:47.791Z,19.20
2022-09-12T00:08:15.559Z,19.21
2022-09-12T00:10:44.230Z,19.21
2022-09-12T00:13:11.846Z,19.21
2022-09-12T00:15:44.363Z,19.21
2022-09-12T00:18:16.917Z,19.20
2022-09-12T00:20:47.829Z,19.18
2022-09-12T00:23:15.063Z,19.17
2022-09-12T00:25:47.594Z,19.15
2022-09-12T00:28:17.209Z,19.13
2022-09-12T00:30:47.991Z,19.12
2022-09-12T00:33:17.733Z,19.09
2022-09-12T00:35:52.756Z,19.06
2022-09-12T00:38:20.587Z,19.03
2022-09-12T00:40:48.823Z,19.01
2022-09-12T00:43:46.006Z,18.97
2022-09-12T00:46:43.217Z,18.92
2022-09-12T00:49:33.530Z,18.87
2022-09-12T00:52:12.362Z,18.85
2022-09-12T00:55:00.190Z,18.83
2022-09-12T00:57:35.800Z,18.82
2022-09-12T01:00:16.495Z,18.82
2022-09-12T01:02:56.318Z,18.81
2022-09-12T01:05:26.647Z,18.79
2022-09-12T01:07:56.294Z,18.81
2022-09-12T01:10:24.768Z,18.79
2022-09-12T01:12:51.884Z,18.77
2022-09-12T01:15:19.018Z,18.76
2022-09-12T01:18:09.204Z,18.74
2022-09-12T01:21:01.250Z,18.68
2022-09-12T01:23:48.882Z,18.64
2022-09-12T01:26:50.268Z,18.61
2022-09-12T01:30:10.851Z,18.57
2022-09-12T01:33:05.205Z,18.53
2022-09-12T01:36:29.557Z,18.52
2022-09-12T01:39:53.356Z,18.49
2022-09-12T01:42:41.947Z,18.46
2022-09-12T01:45:38.382Z,18.45
2022-09-12T01:48:26.445Z,18.44
2022-09-12T01:51:07.496Z,18.42
2022-09-12T01:53:42.826Z,18.41
2022-09-12T01:56:32.923Z,18.40
2022-09-12T01:59:16.924Z,18.38
2022-09-12T02:01:56.057Z,18.36
2022-09-12T02:04:37.602Z,18.32
2022-09-12T02:07:44.960Z,18.30
2022-09-12T02:10:20.326Z,18.25
2022-09-12T02:13:07.401Z,18.24
2022-09-12T02:15:44.482Z,18.21
2022-09-12T02:18:18.265Z,18.18
2022-09-12T02:20:49.403Z,18.17
2022-09-12T02:23:28.422Z,18.15
2022-09-12T02:26:03.628Z,18.12
2022-09-12T02:28:39.355Z,18.09
2022-09-12T02:31:44.893Z,18.06
2022-09-12T02:34:29.168Z,18.00
2022-09-12T02:37:25.910Z,17.98
2022-09-12T02:39:56.843Z,17.95
2022-09-12T02:42:27.753Z,17.95
2022-09-12T02:44:57.445Z,17.94
2022-09-12T02:47:34.249Z,17.94
2022-09-12T02:50:01.953Z,17.92
2022-09-12T02:52:29.710Z,17.92
2022-09-12T02:54:58.996Z,17.92
2022-09-12T02:57:26.024Z,17.91
2022-09-12T03:00:00.237Z,17.91
2022-09-12T03:03:11.113Z,17.89
2022-09-12T03:06:00.383Z,17.88
2022-09-12T03:08:39.879Z,17.86
2022-09-12T03:11:34.225Z,17.87
2022-09-12T03:14:22.073Z,17.87
2022-09-12T03:17:13.746Z,17.88
2022-09-12T03:19:53.050Z,17.89
2022-09-12T03:22:48.159Z,17.89
2022-09-12T03:25:47.364Z,17.89
2022-09-12T03:28:20.590Z,17.88
2022-09-12T03:30:51.446Z,17.88
2022-09-12T03:33:22.421Z,17.91
2022-09-12T03:35:50.940Z,17.92
2022-09-12T03:38:19.223Z,17.93
2022-09-12T03:40:49.344Z,17.94
2022-09-12T03:43:18.310Z,17.95
2022-09-12T03:45:45.121Z,17.96
2022-09-12T03:48:12.190Z,17.96
2022-09-12T03:50:38.985Z,17.96
2022-09-12T03:53:05.828Z,17.99
2022-09-12T03:55:32.641Z,17.99
2022-09-12T03:57:59.397Z,17.98
2022-09-12T04:00:26.446Z,18.01
2022-09-12T04:02:57.372Z,18.01
2022-09-12T04:05:25.754Z,18.01
2022-09-12T04:07:52.975Z,18.01
2022-09-12T04:10:20.271Z,18.03
2022-09-12T04:12:50.474Z,18.03
2022-09-12T04:15:17.499Z,18.05
2022-09-12T04:17:44.582Z,18.03
2022-09-12T04:20:11.354Z,18.06
2022-09-12T04:22:38.114Z,18.07
2022-09-12T04:25:05.878Z,18.07
2022-09-12T04:27:33.130Z,18.09
2022-09-12T04:30:01.928Z,18.08
2022-09-12T04:32:31.331Z,18.08
2022-09-12T04:34:58.269Z,18.05
2022-09-12T04:37:25.119Z,18.05
2022-09-12T04:39:55.977Z,18.01
2022-09-12T04:42:22.979Z,17.98
2022-09-12T04:44:49.910Z,17.94
2022-09-12T04:47:16.947Z,17.89
2022-09-12T04:49:43.728Z,17.85
2022-09-12T04:52:10.499Z,17.81
2022-09-12T04:54:37.953Z,17.77
2022-09-12T04:57:04.895Z,17.74
2022-09-12T04:59:31.586Z,17.71
2022-09-12T05:01:58.665Z,17.68
2022-09-12T05:04:25.438Z,17.66
2022-09-12T05:06:52.260Z,17.63
2022-09-12T05:09:19.095Z,17.59
2022-09-12T05:12:03.683Z,17.58
2022-09-12T05:14:33.004Z,17.54
2022-09-12T05:17:01.719Z,17.52
2022-09-12T05:19:30.638Z,17.53
2022-09-12T05:21:58.931Z,17.55
2022-09-12T05:24:25.971Z,17.58
2022-09-12T05:26:52.959Z,17.60
2022-09-12T05:29:19.938Z,17.66
2022-09-12T05:31:52.312Z,17.71
2022-09-12T05:34:20.385Z,17.79
2022-09-12T05:36:47.166Z,17.86
2022-09-12T05:39:14.143Z,17.95
2022-09-12T05:41:40.990Z,18.03
2022-09-12T05:44:12.612Z,18.17
2022-09-12T05:46:43.672Z,18.28
2022-09-12T05:49:13.310Z,18.41
2022-09-12T05:51:44.266Z,18.54
2022-09-12T05:54:17.278Z,18.66
2022-09-12T05:56:45.369Z,18.79
2022-09-12T05:59:19.388Z,18.92
2022-09-12T06:01:48.377Z,19.03
2022-09-12T06:04:15.875Z,19.16
2022-09-12T06:06:45.424Z,19.28
2022-09-12T06:09:15.527Z,19.42
2022-09-12T06:11:43.775Z,19.54
2022-09-12T06:14:13.147Z,19.69
2022-09-12T06:16:40.544Z,19.81
2022-09-12T06:19:13.932Z,19.94
2022-09-12T06:21:40.809Z,20.07
2022-09-12T06:24:07.746Z,20.23
2022-09-12T06:26:35.058Z,20.40
2022-09-12T06:29:02.129Z,20.55
2022-09-12T06:31:33.298Z,20.74
2022-09-12T06:34:03.991Z,20.93
2022-09-12T06:36:36.618Z,21.17
2022-09-12T06:39:11.029Z,21.43
2022-09-12T06:41:42.987Z,21.69
2022-09-12T06:44:20.390Z,21.97
2022-09-12T06:46:47.374Z,22.23
2022-09-12T06:49:14.875Z,22.45
2022-09-12T06:51:42.571Z,22.63
2022-09-12T06:54:13.171Z,22.81
2022-09-12T06:56:40.531Z,22.89
2022-09-12T06:59:07.297Z,22.97
2022-09-12T07:01:34.369Z,23.03
2022-09-12T07:04:04.102Z,23.16
2022-09-12T07:06:40.655Z,23.54
2022-09-12T07:09:11.426Z,23.98
2022-09-12T07:11:41.437Z,24.51
2022-09-12T07:14:11.982Z,25.21
2022-09-12T07:16:38.783Z,25.98
2022-09-12T07:19:08.168Z,26.84
2022-09-12T07:21:41.722Z,27.68
2022-09-12T07:24:10.641Z,28.45
2022-09-12T07:26:39.671Z,29.05
2022-09-12T07:29:35.241Z,29.47
2022-09-12T07:31:53.619Z,29.78
2022-09-12T07:34:20.309Z,29.99
2022-09-12T07:36:47.025Z,30.14
2022-09-12T07:39:13.756Z,30.24
2022-09-12T07:41:40.549Z,30.39
2022-09-12T07:44:07.446Z,30.63
2022-09-12T07:46:35.321Z,30.85
2022-09-12T07:49:02.977Z,31.02
2022-09-12T07:51:31.631Z,31.12
2022-09-12T07:53:59.469Z,31.10
2022-09-12T07:56:31.240Z,31.02
2022-09-12T07:58:59.561Z,30.96
2022-09-12T08:01:27.065Z,30.88
2022-09-12T08:03:59.512Z,30.88
2022-09-12T08:06:32.061Z,30.82
2022-09-12T08:08:59.919Z,30.64
2022-09-12T08:11:29.778Z,30.41
2022-09-12T08:13:58.125Z,30.20
2022-09-12T08:16:30.197Z,30.10
2022-09-12T08:18:58.080Z,30.29
2022-09-12T08:21:31.476Z,30.75
2022-09-12T08:24:04.254Z,31.53
2022-09-12T08:26:35.974Z,32.46
2022-09-12T08:29:04.133Z,33.46
2022-09-12T08:31:36.590Z,34.50
2022-09-12T08:34:05.486Z,35.55
2022-09-12T08:36:32.978Z,36.47
2022-09-12T08:39:04.634Z,37.32
2022-09-12T08:41:40.631Z,38.12
2022-09-12T08:44:36.280Z,38.72
2022-09-12T08:47:24.074Z,39.18
2022-09-12T08:50:12.186Z,39.52
2022-09-12T08:52:58.810Z,39.90
2022-09-12T08:55:36.768Z,40.17
2022-09-12T08:58:23.018Z,40.41
2022-09-12T09:01:17.601Z,40.61
2022-09-12T09:04:18.871Z,40.80
2022-09-12T09:07:42.314Z,41.05
2022-09-12T09:10:49.372Z,41.19
2022-09-12T09:14:05.630Z,41.16
2022-09-12T09:16:41.053Z,41.11
2022-09-12T09:19:26.875Z,41.02
2022-09-12T09:22:02.141Z,40.99
2022-09-12T09:24:50.598Z,40.92
2022-09-12T09:27:40.367Z,40.83
2022-09-12T09:30:21.503Z,40.75
2022-09-12T09:32:56.294Z,40.61
2022-09-12T09:35:52.246Z,40.49
2022-09-12T09:38:42.066Z,40.48
2022-09-12T09:41:27.200Z,40.46
2022-09-12T09:43:54.060Z,40.21
2022-09-12T09:46:20.936Z,39.87
2022-09-12T09:48:51.073Z,39.57
2022-09-12T09:51:28.654Z,39.37
2022-09-12T09:54:03.517Z,39.28
2022-09-12T09:56:40.730Z,39.20
2022-09-12T09:59:17.409Z,39.02
2022-09-12T10:01:57.510Z,38.87
2022-09-12T10:04:41.673Z,38.71
2022-09-12T10:07:19.801Z,38.61
2022-09-12T10:10:18.793Z,38.38
2022-09-12T10:12:45.906Z,38.31
2022-09-12T10:15:23.197Z,38.28
2022-09-12T10:17:51.284Z,38.40
2022-09-12T10:20:39.033Z,38.56
2022-09-12T10:23:40.250Z,38.82
2022-09-12T10:26:18.289Z,39.16
2022-09-12T10:28:53.986Z,39.45
2022-09-12T10:31:39.014Z,39.72
2022-09-12T10:34:05.939Z,39.84
2022-09-12T10:36:39.547Z,39.86
2022-09-12T10:39:07.256Z,39.77
2022-09-12T10:41:41.803Z,39.67
2022-09-12T10:44:18.881Z,39.55
2022-09-12T10:46:46.178Z,39.51
2022-09-12T10:49:39.935Z,39.47
2022-09-12T10:52:23.069Z,39.49
2022-09-12T10:54:54.302Z,39.53
2022-09-12T10:57:41.806Z,39.60
2022-09-12T11:00:19.861Z,39.67
2022-09-12T11:03:24.713Z,39.67
2022-09-12T11:06:01.751Z,39.66
2022-09-12T11:09:10.026Z,39.57
2022-09-12T11:12:40.768Z,39.41
2022-09-12T11:15:13.319Z,39.13
2022-09-12T11:17:45.574Z,38.87
2022-09-12T11:21:02.354Z,38.55
2022-09-12T11:24:02.611Z,38.34
2022-09-12T11:27:00.006Z,38.14
2022-09-12T11:29:54.953Z,37.86
2022-09-12T11:32:33.633Z,37.65
2022-09-12T11:35:27.883Z,37.37
2022-09-12T11:38:38.765Z,37.08
2022-09-12T11:41:37.820Z,36.88
2022-09-12T11:44:24.414Z,36.66
2022-09-12T11:46:52.214Z,36.48
2022-09-12T11:49:40.135Z,36.27
2022-09-12T11:52:33.754Z,36.04
2022-09-12T11:55:15.200Z,35.85
2022-09-12T11:57:49.162Z,35.66
2022-09-12T12:00:29.984Z,35.40
2022-09-12T12:03:31.259Z,35.07
2022-09-12T12:06:05.807Z,34.81
2022-09-12T12:08:39.391Z,34.55
2022-09-12T12:11:08.462Z,34.34
2022-09-12T12:13:55.621Z,34.13
2022-09-12T12:16:29.829Z,34.01
2022-09-12T12:19:00.738Z,33.84
2022-09-12T12:21:47.263Z,33.55
2022-09-12T12:24:21.861Z,33.39
2022-09-12T12:27:00.422Z,33.32
2022-09-12T12:29:43.540Z,33.34
2022-09-12T12:32:10.740Z,33.31
2022-09-12T12:34:38.533Z,33.33
2022-09-12T12:37:20.871Z,33.28
2022-09-12T12:39:51.237Z,33.21
2022-09-12T12:42:35.830Z,33.08
2022-09-12T12:45:26.728Z,32.89
2022-09-12T12:48:09.626Z,32.75
2022-09-12T12:50:36.804Z,32.58
2022-09-12T12:53:22.977Z,32.45
2022-09-12T12:55:56.182Z,32.36
2022-09-12T12:58:40.527Z,32.25
2022-09-12T13:01:10.165Z,32.21
2022-09-12T13:03:41.693Z,32.23
2022-09-12T13:06:25.691Z,32.29
2022-09-12T13:09:32.497Z,32.43
2022-09-12T13:12:27.459Z,32.62
2022-09-12T13:14:59.340Z,32.79
2022-09-12T13:17:44.269Z,32.90
2022-09-12T13:20:29.760Z,32.98
2022-09-12T13:22:58.239Z,33.05
2022-09-12T13:25:29.900Z,33.12
2022-09-12T13:28:20.641Z,33.18
2022-09-12T13:30:57.803Z,33.22
2022-09-12T13:34:00.113Z,33.19
2022-09-12T13:37:08.798Z,33.12
2022-09-12T13:40:17.082Z,33.03
2022-09-12T13:43:02.461Z,33.05
2022-09-12T13:45:29.151Z,33.05
2022-09-12T13:48:02.478Z,33.12
2022-09-12T13:50:47.003Z,33.15
2022-09-12T13:53:19.420Z,33.14
2022-09-12T13:55:59.635Z,33.11
2022-09-12T13:58:30.257Z,33.03
2022-09-12T14:01:12.302Z,32.91
2022-09-12T14:04:13.184Z,32.82
2022-09-12T14:06:53.358Z,32.75
2022-09-12T14:09:34.599Z,32.70
2022-09-12T14:12:02.438Z,32.59
2022-09-12T14:14:42.337Z,32.53
2022-09-12T14:17:24.088Z,32.44
2022-09-12T14:19:52.733Z,32.42
2022-09-12T14:22:19.773Z,32.40
2022-09-12T14:24:50.437Z,32.34
2022-09-12T14:27:26.833Z,32.29
2022-09-12T14:30:02.650Z,32.24
2022-09-12T14:32:31.054Z,32.14
2022-09-12T14:35:19.725Z,32.01
2022-09-12T14:37:50.148Z,31.96
2022-09-12T14:40:21.513Z,31.92
2022-09-12T14:42:51.575Z,31.91
2022-09-12T14:45:30.097Z,31.91
2022-09-12T14:47:58.775Z,31.97
2022-09-12T14:50:29.646Z,32.01
2022-09-12T14:53:18.883Z,32.03
2022-09-12T14:55:53.706Z,32.02
2022-09-12T14:58:20.502Z,32.04
2022-09-12T15:01:05.507Z,32.09
2022-09-12T15:03:43.889Z,32.16
2022-09-12T15:06:39.510Z,32.23
2022-09-12T15:09:12.410Z,32.37
2022-09-12T15:11:39.551Z,32.46
2022-09-12T15:14:15.792Z,32.54
2022-09-12T15:16:45.060Z,32.58
2022-09-12T15:19:11.794Z,32.66
2022-09-12T15:21:38.573Z,32.70
2022-09-12T15:24:05.464Z,32.75
2022-09-12T15:26:32.211Z,32.75
2022-09-12T15:29:02.515Z,32.76
2022-09-12T15:31:31.812Z,32.75
2022-09-12T15:34:01.609Z,32.71
2022-09-12T15:36:29.297Z,32.69
2022-09-12T15:38:56.635Z,32.66
2022-09-12T15:41:37.964Z,32.63
2022-09-12T15:44:12.247Z,32.61
2022-09-12T15:46:39.366Z,32.58
2022-09-12T15:49:07.136Z,32.57
2022-09-12T15:51:34.165Z,32.53
2022-09-12T15:54:05.927Z,32.51
2022-09-12T15:56:32.830Z,32.47
2022-09-12T15:59:00.767Z,32.45
2022-09-12T16:01:28.840Z,32.40
2022-09-12T16:03:56.037Z,32.38
2022-09-12T16:06:23.394Z,32.35
2022-09-12T16:08:50.388Z,32.32
2022-09-12T16:11:27.148Z,32.30
2022-09-12T16:13:55.947Z,32.28
2022-09-12T16:16:22.761Z,32.26
2022-09-12T16:18:49.641Z,32.24
2022-09-12T16:21:16.569Z,32.23
2022-09-12T16:23:45.353Z,32.21
2022-09-12T16:26:12.075Z,32.19
2022-09-12T16:28:42.441Z,32.15
2022-09-12T16:31:13.458Z,32.13
2022-09-12T16:33:40.929Z,32.10
2022-09-12T16:36:14.885Z,32.05
2022-09-12T16:38:47.745Z,32.02
2022-09-12T16:41:16.905Z,31.99
2022-09-12T16:43:45.472Z,31.96
2022-09-12T16:46:16.576Z,31.95
2022-09-12T16:48:52.405Z,31.91
2022-09-12T16:51:30.226Z,31.83
2022-09-12T16:53:57.313Z,31.78
2022-09-12T16:56:24.826Z,31.70
2022-09-12T16:58:53.146Z,31.65
2022-09-12T17:01:26.221Z,31.57
2022-09-12T17:03:56.580Z,31.47
2022-09-12T17:06:25.170Z,31.35
2022-09-12T17:08:55.321Z,31.22
2022-09-12T17:11:26.930Z,31.11
2022-09-12T17:14:05.279Z,30.97
2022-09-12T17:16:36.715Z,30.84
2022-09-12T17:19:04.883Z,30.71
2022-09-12T17:21:31.812Z,30.61
2022-09-12T17:23:59.240Z,30.50
2022-09-12T17:26:26.713Z,30.39
2022-09-12T17:28:53.584Z,30.26
2022-09-12T17:31:20.703Z,30.15
2022-09-12T17:33:47.917Z,30.03
2022-09-12T17:36:17.798Z,29.91
2022-09-12T17:38:46.347Z,29.75
2022-09-12T17:41:23.530Z,29.62
2022-09-12T17:43:55.607Z,29.48
2022-09-12T17:46:31.043Z,29.33
2022-09-12T17:48:58.337Z,29.18
2022-09-12T17:51:30.578Z,29.04
2022-09-12T17:54:08.552Z,28.88
2022-09-12T17:56:37.252Z,28.71
2022-09-12T17:59:07.258Z,28.56
2022-09-12T18:01:53.006Z,28.41
2022-09-12T18:04:20.125Z,28.22
2022-09-12T18:06:48.849Z,28.13
2022-09-12T18:09:24.827Z,28.04
2022-09-12T18:11:53.000Z,27.93
2022-09-12T18:14:21.122Z,27.84
2022-09-12T18:16:48.216Z,27.74
2022-09-12T18:19:15.441Z,27.65
2022-09-12T18:21:42.211Z,27.52
2022-09-12T18:24:10.186Z,27.43
2022-09-12T18:26:37.173Z,27.33
2022-09-12T18:29:04.746Z,27.22
2022-09-12T18:31:31.799Z,27.12
2022-09-12T18:34:00.363Z,26.99
2022-09-12T18:36:28.486Z,26.89
2022-09-12T18:38:58.625Z,26.80
2022-09-12T18:41:26.261Z,26.68
2022-09-12T18:44:01.466Z,26.58
2022-09-12T18:46:30.599Z,26.50
2022-09-12T18:48:58.814Z,26.40
2022-09-12T18:51:34.169Z,26.32
2022-09-12T18:54:10.916Z,26.26
2022-09-12T18:56:40.866Z,26.18
2022-09-12T18:59:07.933Z,26.13
2022-09-12T19:01:37.915Z,26.06
2022-09-12T19:04:09.804Z,25.97
2022-09-12T19:06:54.536Z,25.87
2022-09-12T19:09:21.422Z,25.82
2022-09-12T19:11:49.941Z,25.77
2022-09-12T19:14:22.570Z,25.70
2022-09-12T19:16:53.404Z,25.64
2022-09-12T19:19:23.888Z,25.58
2022-09-12T19:21:50.729Z,25.53
2022-09-12T19:24:18.126Z,25.48
2022-09-12T19:26:45.660Z,25.44
2022-09-12T19:29:14.329Z,25.37
2022-09-12T19:31:41.717Z,25.31
2022-09-12T19:34:12.513Z,25.24
2022-09-12T19:36:45.262Z,25.17
2022-09-12T19:39:15.333Z,25.12
2022-09-12T19:41:42.665Z,25.06
2022-09-12T19:44:09.676Z,25.03
2022-09-12T19:46:36.643Z,24.98
2022-09-12T19:49:04.030Z,24.96
2022-09-12T19:51:31.221Z,24.94
2022-09-12T19:53:58.020Z,24.90
2022-09-12T19:56:24.832Z,24.85
2022-09-12T19:58:56.060Z,24.81
2022-09-12T20:01:30.889Z,24.77
2022-09-12T20:04:00.012Z,24.69
2022-09-12T20:06:28.010Z,24.64
2022-09-12T20:08:56.022Z,24.61
2022-09-12T20:11:25.484Z,24.56
2022-09-12T20:13:52.816Z,24.51
2022-09-12T20:16:29.084Z,24.46
2022-09-12T20:19:02.563Z,24.41
2022-09-12T20:21:32.616Z,24.35
2022-09-12T20:24:01.744Z,24.31
2022-09-12T20:26:28.610Z,24.27
2022-09-12T20:28:55.520Z,24.23
2022-09-12T20:31:22.468Z,24.18
2022-09-12T20:33:51.779Z,24.15
2022-09-12T20:36:21.470Z,24.11
2022-09-12T20:38:56.640Z,24.08
2022-09-12T20:41:25.607Z,24.03
2022-09-12T20:43:54.246Z,23.99
2022-09-12T20:46:22.715Z,23.96
2022-09-12T20:48:51.295Z,23.94
2022-09-12T20:51:20.405Z,23.90
2022-09-12T20:53:52.935Z,23.85
2022-09-12T20:56:19.976Z,23.81
2022-09-12T20:58:46.741Z,23.77
2022-09-12T21:01:15.996Z,23.77
2022-09-12T21:03:44.596Z,23.73
2022-09-12T21:06:14.415Z,23.71
2022-09-12T21:08:41.265Z,23.66
2022-09-12T21:11:08.780Z,23.63
2022-09-12T21:13:36.966Z,23.59
2022-09-12T21:16:14.061Z,23.58
2022-09-12T21:18:41.711Z,23.54
2022-09-12T21:21:11.664Z,23.52
2022-09-12T21:23:38.738Z,23.50
2022-09-12T21:26:08.926Z,23.47
2022-09-12T21:28:35.991Z,23.43
2022-09-12T21:31:03.355Z,23.41
2022-09-12T21:33:31.397Z,23.38
2022-09-12T21:36:04.252Z,23.37
2022-09-12T21:38:32.365Z,23.34
2022-09-12T21:41:11.924Z,23.30
2022-09-12T21:43:40.018Z,23.26
2022-09-12T21:46:09.707Z,23.22
2022-09-12T21:48:37.445Z,23.20
2022-09-12T21:51:04.963Z,23.18
2022-09-12T21:53:32.124Z,23.14
2022-09-12T21:56:05.334Z,23.11
2022-09-12T21:58:32.121Z,23.07
2022-09-12T22:01:00.420Z,23.05
2022-09-12T22:03:28.686Z,23.02
2022-09-12T22:06:05.166Z,22.99
2022-09-12T22:08:34.327Z,22.96
2022-09-12T22:11:09.164Z,22.94
2022-09-12T22:13:39.200Z,22.90
2022-09-12T22:16:09.472Z,22.87
2022-09-12T22:18:37.345Z,22.83
2022-09-12T22:21:08.849Z,22.83
2022-09-12T22:23:54.506Z,22.81
2022-09-12T22:26:21.618Z,22.73
2022-09-12T22:28:49.196Z,22.71
2022-09-12T22:31:17.335Z,22.67
2022-09-12T22:33:45.136Z,22.64
2022-09-12T22:36:12.656Z,22.61
2022-09-12T22:38:39.793Z,22.57
2022-09-12T22:41:10.545Z,22.55
2022-09-12T22:43:37.582Z,22.51
2022-09-12T22:46:09.459Z,22.47
2022-09-12T22:48:37.769Z,22.43
2022-09-12T22:51:05.258Z,22.41
2022-09-12T22:53:32.531Z,22.38
2022-09-12T22:55:59.258Z,22.37
2022-09-12T22:58:26.009Z,22.34
2022-09-12T23:00:52.867Z,22.31
2022-09-12T23:03:21.350Z,22.29
2022-09-12T23:05:48.763Z,22.25
2022-09-12T23:08:19.280Z,22.22
2022-09-12T23:10:46.673Z,22.18
2022-09-12T23:13:13.641Z,22.16
2022-09-12T23:15:40.966Z,22.13
2022-09-12T23:18:08.368Z,22.09
2022-09-12T23:20:35.075Z,22.05
2022-09-12T23:23:01.784Z,22.04
2022-09-12T23:25:28.569Z,21.99
2022-09-12T23:27:55.280Z,21.97
2022-09-12T23:30:22.130Z,21.96
2022-09-12T23:32:49.712Z,21.96
2022-09-12T23:35:20.423Z,21.94
2022-09-12T23:37:47.672Z,21.92
2022-09-12T23:40:14.796Z,21.92
2022-09-12T23:42:41.617Z,21.90
2022-09-12T23:45:09.949Z,21.89
2022-09-12T23:47:36.659Z,21.86
2022-09-12T23:50:03.782Z,21.85
2022-09-12T23:52:30.802Z,21.83
2022-09-12T23:54:57.630Z,21.80
2022-09-12T23:57:24.392Z,21.79
2022-09-12T23:59:51.281Z,21.79
